Time;durP1;ratioP1;P1;durP2;ratioP2;P2;SDS_P1;SDS_P2;PMS_P1;PMS_P2;Temp;Humidity;BMP_temperature;BMP_pressure;BME280_temperature;BME280_humidity;BME280_pressure;Samples;Min_cycle;Max_cycle;Signal;HPM_P1;HPM_P2
2023/07/22 00:02:17;;;;;;;4.00;1.70;;;22.30;60.70;;;;;;5034904;28;20037;-59
2023/07/22 00:04:43;;;;;;;3.97;1.60;;;22.30;60.70;;;;;;5034826;28;20054;-59
2023/07/22 00:07:08;;;;;;;3.58;1.90;;;22.30;60.70;;;;;;5035359;28;20112;-58
2023/07/22 00:09:34;;;;;;;3.90;2.20;;;22.30;60.70;;;;;;5035283;28;20259;-58
2023/07/22 00:12:00;;;;;;;3.00;1.48;;;22.30;60.70;;;;;;5034368;28;20077;-59
2023/07/22 00:14:25;;;;;;;5.47;1.70;;;22.30;60.70;;;;;;5034672;28;20049;-58
2023/07/22 00:16:51;;;;;;;3.80;1.85;;;22.30;60.70;;;;;;5033781;28;20156;-58
2023/07/22 00:19:17;;;;;;;4.88;2.13;;;22.30;60.70;;;;;;5034486;28;20107;-59
2023/07/22 00:21:42;;;;;;;4.18;1.70;;;22.30;60.70;;;;;;5035121;28;20033;-59
2023/07/22 00:24:08;;;;;;;4.28;1.92;;;22.30;60.70;;;;;;5034858;28;20051;-58
2023/07/22 00:26:34;;;;;;;3.83;1.80;;;22.30;60.80;;;;;;5034141;28;20492;-58
2023/07/22 00:28:59;;;;;;;4.10;1.85;;;22.30;60.80;;;;;;5034666;28;20059;-58
2023/07/22 00:31:25;;;;;;;3.55;1.95;;;22.30;60.80;;;;;;5035384;28;20073;-58
2023/07/22 00:33:50;;;;;;;3.25;1.52;;;22.20;60.70;;;;;;5033996;28;20040;-58
2023/07/22 00:36:16;;;;;;;3.75;1.67;;;22.30;60.80;;;;;;5035255;28;20083;-58
2023/07/22 00:38:41;;;;;;;4.15;1.90;;;22.20;60.70;;;;;;5033911;28;20052;-58
2023/07/22 00:41:07;;;;;;;5.28;2.15;;;22.20;60.70;;;;;;5033712;28;20041;-58
2023/07/22 00:43:33;;;;;;;4.22;1.70;;;22.20;60.70;;;;;;5034676;28;20045;-59
2023/07/22 00:45:59;;;;;;;3.25;1.80;;;22.20;60.70;;;;;;5033985;28;20380;-58
2023/07/22 00:48:24;;;;;;;3.20;1.55;;;22.20;60.70;;;;;;5034550;28;20051;-58
2023/07/22 00:50:50;;;;;;;4.10;2.03;;;22.20;60.80;;;;;;5033410;28;20125;-58
2023/07/22 00:53:16;;;;;;;4.07;1.67;;;22.20;60.80;;;;;;5033986;28;20095;-58
2023/07/22 00:55:41;;;;;;;3.25;1.70;;;22.20;60.80;;;;;;5034437;28;20406;-58
2023/07/22 00:58:07;;;;;;;4.03;1.77;;;22.20;60.80;;;;;;5032907;28;20044;-58
2023/07/22 01:00:32;;;;;;;3.72;1.70;;;22.20;60.80;;;;;;5033100;28;20085;-59
2023/07/22 01:02:58;;;;;;;4.22;1.75;;;22.20;60.80;;;;;;5034110;28;20048;-58
2023/07/22 01:05:25;;;;;;;3.28;1.85;;;22.20;60.80;;;;;;5034746;28;20041;-59
2023/07/22 01:07:51;;;;;;;2.67;1.63;;;22.20;60.80;;;;;;5015783;28;20408;-58
2023/07/22 01:10:16;;;;;;;3.33;1.80;;;22.20;60.80;;;;;;5034395;28;20128;-59
2023/07/22 01:12:43;;;;;;;3.30;1.60;;;22.20;60.80;;;;;;5033537;28;20458;-58
2023/07/22 01:15:09;;;;;;;5.22;2.20;;;22.20;60.80;;;;;;5031605;28;20128;-59
2023/07/22 01:17:36;;;;;;;3.40;1.77;;;22.20;60.90;;;;;;4998942;28;20128;-59
2023/07/22 01:20:02;;;;;;;3.58;1.83;;;22.20;60.80;;;;;;5034301;28;20063;-58
2023/07/22 01:22:32;;;;;;;3.72;1.90;;;22.20;60.80;;;;;;5019929;28;20056;-59
2023/07/22 01:24:57;;;;;;;3.25;1.75;;;22.20;60.90;;;;;;5014609;28;20046;-58
2023/07/22 01:27:23;;;;;;;3.50;1.75;;;22.10;60.80;;;;;;4997001;28;20489;-58
2023/07/22 01:29:51;;;;;;;4.32;2.20;;;22.20;60.90;;;;;;5023881;28;20118;-58
2023/07/22 01:32:17;;;;;;;;;;;22.10;60.80;;;;;;5034395;28;20033;-58
2023/07/22 01:34:42;;;;;;;3.63;1.95;;;22.10;60.80;;;;;;5033951;28;20254;-59
2023/07/22 01:37:09;;;;;;;3.35;1.63;;;22.10;60.90;;;;;;5033280;28;20401;-59
2023/07/22 01:39:35;;;;;;;4.10;2.03;;;22.10;60.90;;;;;;5033558;28;20081;-58
2023/07/22 01:42:00;;;;;;;3.63;1.83;;;22.10;60.90;;;;;;5033092;28;20069;-59
2023/07/22 01:44:26;;;;;;;3.78;1.85;;;22.10;60.90;;;;;;5033059;28;20041;-60
2023/07/22 01:46:52;;;;;;;3.40;1.85;;;22.10;60.90;;;;;;5033584;28;20041;-60
2023/07/22 01:49:17;;;;;;;3.85;1.85;;;22.10;61.00;;;;;;5031838;28;20853;-60
2023/07/22 01:51:43;;;;;;;3.55;1.70;;;22.10;60.90;;;;;;5033431;28;20029;-60
2023/07/22 01:54:09;;;;;;;5.63;2.10;;;22.10;61.00;;;;;;5032816;28;20396;-60
2023/07/22 01:56:35;;;;;;;3.33;1.83;;;22.10;61.00;;;;;;5032054;28;20142;-60
2023/07/22 01:59:01;;;;;;;3.15;1.80;;;22.10;61.00;;;;;;5032524;28;20041;-59
2023/07/22 02:01:28;;;;;;;3.20;1.83;;;22.10;61.00;;;;;;5032845;28;20046;-60
2023/07/22 02:03:54;;;;;;;4.70;2.13;;;22.10;61.00;;;;;;5025103;28;20408;-59
2023/07/22 02:06:19;;;;;;;3.55;1.92;;;22.10;61.00;;;;;;5033053;28;20465;-60
2023/07/22 02:08:45;;;;;;;4.50;2.20;;;22.10;61.00;;;;;;5023147;28;20100;-59
2023/07/22 02:11:11;;;;;;;6.00;2.30;;;22.00;61.00;;;;;;5012562;28;20108;-60
2023/07/22 02:13:36;;;;;;;4.80;2.15;;;22.00;61.00;;;;;;5020212;28;20037;-60
2023/07/22 02:16:03;;;;;;;3.97;2.28;;;22.10;61.00;;;;;;5032745;28;20048;-60
2023/07/22 02:18:28;;;;;;;3.92;1.85;;;22.00;61.00;;;;;;5030482;28;20084;-60
2023/07/22 02:20:54;;;;;;;4.80;2.10;;;22.00;61.00;;;;;;5033109;28;20088;-60
2023/07/22 02:23:20;;;;;;;4.03;2.10;;;22.10;61.10;;;;;;5032938;28;20428;-60
2023/07/22 02:25:50;;;;;;;3.60;1.85;;;22.00;61.00;;;;;;5031960;28;20538;-60
2023/07/22 02:28:15;;;;;;;4.18;2.00;;;22.10;61.10;;;;;;5032719;28;20041;-60
2023/07/22 02:30:41;;;;;;;3.40;1.90;;;22.10;61.10;;;;;;5032261;28;20362;-60
2023/07/22 02:33:08;;;;;;;3.28;1.98;;;22.00;61.10;;;;;;5031400;28;20423;-60
2023/07/22 02:35:33;;;;;;;5.05;2.00;;;22.10;61.10;;;;;;5032500;28;20060;-60
2023/07/22 02:37:59;;;;;;;3.58;2.00;;;22.10;61.10;;;;;;5032740;28;20489;-60
2023/07/22 02:40:24;;;;;;;4.13;2.00;;;22.10;61.10;;;;;;5032013;28;20050;-60
2023/07/22 02:42:50;;;;;;;3.28;1.80;;;22.00;61.10;;;;;;5030945;28;20046;-60
2023/07/22 02:45:15;;;;;;;3.90;1.85;;;22.00;61.10;;;;;;5031378;28;20041;-60
2023/07/22 02:47:41;;;;;;;4.93;2.15;;;22.00;61.10;;;;;;5032386;28;20477;-60
2023/07/22 02:50:07;;;;;;;4.13;2.20;;;22.00;61.10;;;;;;5032520;28;20045;-60
2023/07/22 02:52:33;;;;;;;3.90;2.00;;;22.00;61.10;;;;;;5031482;28;20089;-60
2023/07/22 02:55:08;;;;;;;3.38;1.92;;;22.00;61.10;;;;;;5031440;28;20582;-60
2023/07/22 02:57:34;;;;;;;4.28;2.35;;;22.00;61.10;;;;;;5032366;28;20485;-60
2023/07/22 03:00:00;;;;;;;4.03;2.30;;;22.00;61.20;;;;;;5031614;28;20038;-60
2023/07/22 03:02:25;;;;;;;6.50;2.20;;;22.00;61.20;;;;;;5031065;28;20182;-60
2023/07/22 03:04:51;;;;;;;3.90;2.05;;;22.00;61.20;;;;;;5031570;28;20041;-60
2023/07/22 03:07:17;;;;;;;3.90;2.35;;;22.00;61.20;;;;;;5031172;28;20124;-60
2023/07/22 03:09:42;;;;;;;3.97;2.15;;;22.00;61.10;;;;;;5018473;28;20046;-60
2023/07/22 03:12:08;;;;;;;4.22;2.10;;;22.00;61.20;;;;;;5012437;28;20042;-60
2023/07/22 03:14:37;;;;;;;3.53;1.90;;;21.90;61.20;;;;;;5023309;28;20080;-60
2023/07/22 03:17:03;;;;;;;3.72;2.03;;;21.90;61.20;;;;;;5032503;28;20053;-60
2023/07/22 03:19:29;;;;;;;3.97;2.47;;;22.00;61.30;;;;;;5031596;28;20042;-60
2023/07/22 03:21:55;;;;;;;3.58;2.15;;;22.00;61.20;;;;;;5031705;28;20124;-60
2023/07/22 03:24:20;;;;;;;3.42;2.03;;;22.00;61.20;;;;;;5031790;28;20052;-60
2023/07/22 03:26:46;;;;;;;4.13;2.17;;;22.00;61.30;;;;;;5032054;28;20092;-60
2023/07/22 03:29:12;;;;;;;4.47;2.10;;;21.90;61.20;;;;;;5031263;28;20053;-60
2023/07/22 03:31:37;;;;;;;4.07;2.33;;;22.00;61.30;;;;;;5031995;28;20088;-60
2023/07/22 03:34:03;;;;;;;4.50;2.40;;;21.90;61.20;;;;;;5031904;28;20375;-60
2023/07/22 03:36:28;;;;;;;4.55;2.33;;;21.90;61.20;;;;;;5031438;28;20095;-60
2023/07/22 03:38:54;;;;;;;4.07;2.33;;;21.90;61.20;;;;;;5031815;28;20115;-60
2023/07/22 03:41:20;;;;;;;4.43;2.22;;;21.90;61.20;;;;;;5031107;28;20041;-60
2023/07/22 03:43:45;;;;;;;3.95;2.15;;;21.90;61.30;;;;;;5031074;28;20120;-60
2023/07/22 03:46:11;;;;;;;3.00;2.00;;;21.90;61.30;;;;;;5032306;28;20069;-60
2023/07/22 03:48:36;;;;;;;5.28;2.30;;;21.90;61.30;;;;;;5030921;28;20447;-60
2023/07/22 03:51:02;;;;;;;3.70;2.13;;;21.90;61.30;;;;;;5030841;28;20044;-60
2023/07/22 03:53:27;;;;;;;4.28;2.38;;;21.90;61.30;;;;;;5032015;28;20034;-60
2023/07/22 03:55:53;;;;;;;4.68;1.95;;;21.90;61.30;;;;;;5029208;28;20865;-60
2023/07/22 03:58:19;;;;;;;4.57;2.42;;;21.90;61.30;;;;;;5031756;28;20052;-60
2023/07/22 04:00:48;;;;;;;5.03;2.45;;;21.90;61.30;;;;;;5027680;28;20405;-60
2023/07/22 04:03:14;;;;;;;4.22;2.22;;;21.90;61.30;;;;;;5024211;28;20175;-60
2023/07/22 04:05:39;;;;;;;3.80;2.22;;;21.90;61.30;;;;;;5030785;28;20112;-60
2023/07/22 04:08:05;;;;;;;4.22;2.28;;;21.90;61.30;;;;;;5031545;28;20409;-60
2023/07/22 04:10:30;;;;;;;5.10;2.53;;;21.90;61.40;;;;;;5030236;28;20041;-60
2023/07/22 04:12:56;;;;;;;4.20;2.15;;;21.90;61.40;;;;;;5032212;28;20049;-60
2023/07/22 04:15:22;;;;;;;3.70;1.98;;;21.90;61.40;;;;;;5035383;28;20120;-60
2023/07/22 04:17:47;;;;;;;4.25;1.95;;;21.90;61.40;;;;;;5034615;28;20041;-60
2023/07/22 04:20:13;;;;;;;4.05;2.25;;;21.90;61.40;;;;;;5035305;28;20041;-60
2023/07/22 04:22:38;;;;;;;4.70;2.42;;;21.90;61.40;;;;;;5034967;28;20489;-60
2023/07/22 04:25:05;;;;;;;4.20;2.22;;;21.90;61.40;;;;;;5034549;28;20037;-59
2023/07/22 04:27:30;;;;;;;4.07;2.40;;;21.90;61.40;;;;;;5032196;28;20103;-60
2023/07/22 04:29:56;;;;;;;5.80;2.53;;;21.90;61.40;;;;;;5024064;28;20069;-60
2023/07/22 04:32:21;;;;;;;4.13;2.38;;;21.90;61.40;;;;;;5014458;28;20093;-60
2023/07/22 04:34:47;;;;;;;4.20;2.22;;;21.90;61.40;;;;;;5015248;28;20042;-60
2023/07/22 04:37:13;;;;;;;4.07;2.58;;;21.90;61.40;;;;;;5015417;28;20389;-60
2023/07/22 04:39:39;;;;;;;3.72;2.03;;;21.90;61.40;;;;;;5014512;28;20045;-60
2023/07/22 04:42:05;;;;;;;4.60;2.13;;;21.80;61.40;;;;;;5015344;28;20073;-60
2023/07/22 04:44:30;;;;;;;4.55;2.53;;;21.80;61.40;;;;;;5014975;28;20493;-60
2023/07/22 04:46:56;;;;;;;4.57;2.45;;;21.90;61.70;;;;;;5013995;28;20045;-60
2023/07/22 04:49:22;;;;;;;6.72;2.80;;;21.90;61.50;;;;;;5015277;28;20117;-60
2023/07/22 04:51:47;;;;;;;4.97;2.47;;;21.80;61.50;;;;;;5014362;28;20042;-60
2023/07/22 04:54:14;;;;;;;4.50;2.13;;;21.80;61.50;;;;;;5018193;28;20034;-60
2023/07/22 04:56:40;;;;;;;4.18;2.45;;;21.90;61.60;;;;;;5032833;28;20438;-60
2023/07/22 04:59:06;;;;;;;3.88;2.10;;;21.80;61.60;;;;;;5032932;28;20632;-59
2023/07/22 05:01:32;;;;;;;3.67;2.28;;;21.80;61.60;;;;;;5034375;28;20502;-60
2023/07/22 05:03:58;;;;;;;4.70;2.50;;;21.80;61.60;;;;;;5033981;28;20052;-60
2023/07/22 05:06:24;;;;;;;4.85;2.40;;;21.80;61.60;;;;;;5033774;28;20125;-60
2023/07/22 05:08:50;;;;;;;4.38;2.40;;;21.80;61.60;;;;;;5034366;28;20103;-60
2023/07/22 05:11:16;;;;;;;4.35;2.13;;;21.80;61.60;;;;;;5034345;28;20045;-60
2023/07/22 05:13:42;;;;;;;4.45;2.67;;;21.80;61.70;;;;;;5033531;28;20091;-60
2023/07/22 05:16:07;;;;;;;4.50;2.40;;;21.80;61.70;;;;;;5034385;28;20052;-60
2023/07/22 05:18:33;;;;;;;3.92;2.00;;;21.80;61.60;;;;;;5033677;28;20401;-60
2023/07/22 05:20:58;;;;;;;4.97;2.70;;;21.80;62.30;;;;;;5033408;28;20036;-60
2023/07/22 05:23:24;;;;;;;4.32;2.45;;;21.80;61.70;;;;;;5034555;28;20100;-60
2023/07/22 05:25:53;;;;;;;3.47;2.10;;;21.80;61.70;;;;;;5032407;28;20049;-60
2023/07/22 05:28:19;;;;;;;4.72;2.67;;;21.80;61.70;;;;;;5033170;28;20049;-60
2023/07/22 05:30:44;;;;;;;3.58;2.20;;;21.80;61.70;;;;;;5033319;28;20052;-60
2023/07/22 05:33:10;;;;;;;4.10;2.65;;;21.80;61.70;;;;;;5033591;28;20041;-60
2023/07/22 05:35:35;;;;;;;5.72;2.70;;;21.80;61.70;;;;;;5032489;28;20049;-60
2023/07/22 05:38:04;;;;;;;4.53;2.63;;;21.80;61.70;;;;;;5034153;28;20049;-60
2023/07/22 05:40:30;;;;;;;4.78;2.60;;;21.80;61.70;;;;;;5033583;28;20045;-60
2023/07/22 05:42:55;;;;;;;3.88;2.53;;;21.80;61.80;;;;;;5033209;28;20033;-60
2023/07/22 05:45:21;;;;;;;4.40;2.63;;;21.80;61.80;;;;;;5033529;28;20053;-60
2023/07/22 05:47:46;;;;;;;4.13;2.25;;;21.80;61.80;;;;;;5033638;28;20128;-60
2023/07/22 05:50:12;;;;;;;4.05;2.13;;;21.80;61.80;;;;;;5031213;28;20050;-60
2023/07/22 05:52:38;;;;;;;4.55;2.50;;;21.80;61.80;;;;;;5033390;28;20136;-60
2023/07/22 05:55:04;;;;;;;5.28;2.72;;;21.80;61.80;;;;;;5015775;28;20045;-60
2023/07/22 05:57:30;;;;;;;5.70;2.55;;;21.80;61.80;;;;;;5031329;28;20099;-60
2023/07/22 05:59:56;;;;;;;4.45;2.45;;;21.80;61.90;;;;;;5033536;28;20046;-59
2023/07/22 06:02:21;;;;;;;4.70;2.55;;;21.80;61.90;;;;;;5031941;28;20045;-60
2023/07/22 06:04:47;;;;;;;4.97;2.60;;;21.80;61.90;;;;;;5028387;28;20042;-60
2023/07/22 06:07:13;;;;;;;4.13;2.30;;;21.80;61.90;;;;;;5013939;28;20387;-60
2023/07/22 06:09:39;;;;;;;4.15;2.42;;;21.80;61.90;;;;;;5015603;28;20489;-60
2023/07/22 06:12:05;;;;;;;4.10;2.22;;;21.70;61.80;;;;;;5033155;28;20034;-60
2023/07/22 06:14:30;;;;;;;4.28;2.30;;;21.80;61.90;;;;;;5031122;28;20049;-60
2023/07/22 06:16:56;;;;;;;4.80;2.65;;;21.70;61.90;;;;;;5031677;28;20049;-59
2023/07/22 06:19:23;;;;;;;4.57;2.65;;;21.80;61.90;;;;;;5032039;28;20084;-60
2023/07/22 06:21:49;;;;;;;4.97;2.40;;;21.80;61.90;;;;;;5031793;28;20090;-60
2023/07/22 06:24:14;;;;;;;10.35;3.15;;;21.80;61.90;;;;;;5031627;28;20486;-60
2023/07/22 06:26:40;;;;;;;6.10;2.75;;;21.80;61.90;;;;;;5032066;28;20045;-60
2023/07/22 06:29:05;;;;;;;6.53;2.40;;;21.80;61.90;;;;;;5033136;28;20047;-60
2023/07/22 06:31:31;;;;;;;5.13;2.63;;;21.80;61.90;;;;;;5031214;28;20076;-60
2023/07/22 06:33:57;;;;;;;6.10;2.72;;;21.80;61.90;;;;;;5032989;28;20042;-60
2023/07/22 06:36:24;;;;;;;5.55;2.45;;;21.80;62.00;;;;;;5033166;28;20073;-60
2023/07/22 06:38:50;;;;;;;4.95;2.60;;;21.80;62.10;;;;;;5032167;28;20136;-60
2023/07/22 06:41:15;;;;;;;6.70;2.88;;;21.80;62.00;;;;;;5032868;28;20124;-60
2023/07/22 06:43:41;;;;;;;4.53;2.33;;;21.80;62.00;;;;;;5032623;28;20344;-60
2023/07/22 06:46:06;;;;;;;5.53;2.97;;;21.80;62.20;;;;;;5031903;28;20053;-60
2023/07/22 06:48:32;;;;;;;5.20;2.50;;;21.80;62.20;;;;;;5032562;28;20439;-60
2023/07/22 06:50:58;;;;;;;5.38;2.85;;;21.80;62.20;;;;;;5033398;28;20044;-60
2023/07/22 06:53:23;;;;;;;7.85;3.50;;;21.80;62.30;;;;;;5032212;28;20375;-61
2023/07/22 06:55:50;;;;;;;5.43;3.00;;;21.80;62.40;;;;;;5031053;28;20053;-60
2023/07/22 06:58:16;;;;;;;7.07;3.08;;;21.80;62.50;;;;;;5032608;28;20573;-60
2023/07/22 07:00:42;;;;;;;6.38;2.80;;;21.90;62.60;;;;;;5031923;28;20120;-61
2023/07/22 07:03:08;;;;;;;5.50;3.03;;;21.80;62.60;;;;;;5030378;28;20045;-60
2023/07/22 07:05:34;;;;;;;6.03;2.90;;;21.90;62.70;;;;;;5031385;28;20034;-60
2023/07/22 07:08:00;;;;;;;5.13;3.13;;;21.90;62.80;;;;;;5030911;28;20037;-59
2023/07/22 07:10:26;;;;;;;6.57;3.08;;;21.90;62.80;;;;;;5032200;28;20461;-59
2023/07/22 07:12:51;;;;;;;7.32;3.40;;;21.90;62.80;;;;;;5031322;28;20049;-60
2023/07/22 07:15:17;;;;;;;6.28;3.10;;;21.90;62.90;;;;;;5032059;28;20400;-60
2023/07/22 07:17:42;;;;;;;4.95;3.00;;;21.90;62.90;;;;;;5028574;28;20477;-59
2023/07/22 07:20:08;;;;;;;6.13;3.72;;;21.90;63.00;;;;;;5031124;28;20045;-59
2023/07/22 07:22:34;;;;;;;8.63;3.20;;;21.90;63.00;;;;;;5031607;28;20026;-59
2023/07/22 07:24:59;;;;;;;6.00;2.90;;;21.90;63.00;;;;;;5032576;28;20404;-60
2023/07/22 07:27:25;;;;;;;6.13;2.75;;;22.00;63.10;;;;;;5031045;28;20049;-60
2023/07/22 07:29:51;;;;;;;5.53;3.35;;;22.00;63.10;;;;;;5032060;28;20037;-60
2023/07/22 07:32:16;;;;;;;5.20;3.05;;;22.00;63.20;;;;;;5031608;28;20558;-59
2023/07/22 07:34:42;;;;;;;5.65;3.17;;;22.00;63.20;;;;;;5031662;28;20048;-60
2023/07/22 07:37:07;;;;;;;6.93;3.20;;;22.00;63.20;;;;;;5032372;28;20042;-60
2023/07/22 07:39:33;;;;;;;5.90;2.92;;;22.00;63.20;;;;;;5032355;28;20042;-60
2023/07/22 07:41:58;;;;;;;6.97;3.05;;;22.00;63.20;;;;;;5031326;28;20064;-60
2023/07/22 07:44:24;;;;;;;6.07;3.30;;;22.10;63.30;;;;;;5032271;28;20047;-59
2023/07/22 07:46:49;;;;;;;6.40;3.33;;;22.00;63.30;;;;;;5030916;28;20049;-60
2023/07/22 07:49:15;;;;;;;5.32;2.70;;;22.00;63.30;;;;;;5034524;28;20396;-60
2023/07/22 07:51:42;;;;;;;4.93;3.00;;;22.10;63.40;;;;;;5035891;28;20041;-60
2023/07/22 07:54:08;;;;;;;5.50;3.00;;;22.10;63.40;;;;;;5035930;28;20107;-60
2023/07/22 07:56:33;;;;;;;6.10;3.25;;;22.10;63.40;;;;;;5025114;28;20041;-60
2023/07/22 07:58:59;;;;;;;5.15;3.17;;;22.10;63.40;;;;;;5016076;28;20440;-60
2023/07/22 08:01:24;;;;;;;6.57;3.17;;;22.10;63.40;;;;;;5018969;28;20481;-60
2023/07/22 08:03:50;;;;;;;6.40;3.30;;;22.10;63.30;;;;;;5021829;28;20085;-60
2023/07/22 08:06:15;;;;;;;6.70;2.92;;;22.10;63.30;;;;;;5031624;28;20100;-60
2023/07/22 08:08:41;;;;;;;5.57;3.17;;;22.10;63.30;;;;;;5015278;28;20040;-60
2023/07/22 08:11:08;;;;;;;6.72;3.00;;;22.20;63.30;;;;;;5015327;28;20069;-59
2023/07/22 08:13:34;;;;;;;5.55;3.20;;;22.20;63.40;;;;;;5015640;28;20492;-59
2023/07/22 08:16:01;;;;;;;5.30;3.00;;;22.20;63.40;;;;;;5014943;28;20045;-60
2023/07/22 08:18:26;;;;;;;4.75;3.05;;;22.20;63.50;;;;;;5020833;28;20049;-60
2023/07/22 08:20:52;;;;;;;4.95;2.80;;;22.20;63.50;;;;;;5029241;28;20038;-59
2023/07/22 08:23:19;;;;;;;5.75;2.92;;;22.20;63.50;;;;;;5034752;28;20037;-59
2023/07/22 08:25:44;;;;;;;5.85;3.22;;;22.20;63.50;;;;;;5023733;28;20042;-59
2023/07/22 08:28:10;;;;;;;5.95;3.13;;;22.20;63.50;;;;;;5013400;28;20524;-59
2023/07/22 08:30:36;;;;;;;5.50;3.05;;;22.20;63.50;;;;;;5013538;28;20059;-59
2023/07/22 08:33:02;;;;;;;5.97;2.88;;;22.20;63.50;;;;;;5026015;28;20042;-59
2023/07/22 08:35:27;;;;;;;4.75;3.00;;;22.30;63.50;;;;;;5026769;28;20042;-60
2023/07/22 08:37:53;;;;;;;5.18;3.13;;;22.30;63.60;;;;;;5013369;28;20126;-59
2023/07/22 08:40:20;;;;;;;5.38;2.83;;;22.30;63.60;;;;;;5021896;28;20100;-59
2023/07/22 08:42:46;;;;;;;6.38;3.35;;;22.30;63.60;;;;;;5034166;28;20038;-59
2023/07/22 08:45:11;;;;;;;5.80;3.67;;;22.30;63.60;;;;;;5014222;28;20095;-59
2023/07/22 08:47:45;;;;;;;5.72;3.25;;;22.30;63.60;;;;;;5034350;28;20049;-59
2023/07/22 08:50:11;;;;;;;5.57;3.00;;;22.30;63.60;;;;;;5027648;28;20160;-59
2023/07/22 08:52:37;;;;;;;6.03;2.80;;;22.30;63.60;;;;;;5014132;28;20046;-60
2023/07/22 08:55:03;;;;;;;6.63;3.22;;;22.30;63.60;;;;;;5018728;28;20055;-60
2023/07/22 08:57:29;;;;;;;5.32;2.70;;;22.40;63.60;;;;;;5033156;28;20052;-60
2023/07/22 08:59:56;;;;;;;5.60;3.10;;;22.40;63.60;;;;;;5032127;28;20045;-60
2023/07/22 09:02:22;;;;;;;5.75;3.00;;;22.40;63.50;;;;;;5034845;28;20366;-58
2023/07/22 09:04:48;;;;;;;6.63;3.35;;;22.50;63.60;;;;;;5034304;28;20205;-58
2023/07/22 09:07:13;;;;;;;4.97;3.08;;;22.40;63.50;;;;;;5033864;28;20102;-58
2023/07/22 09:09:39;;;;;;;4.80;2.97;;;22.40;63.50;;;;;;5016471;28;20034;-58
2023/07/22 09:12:05;;;;;;;5.97;3.00;;;22.40;63.40;;;;;;5016018;28;20477;-58
2023/07/22 09:14:31;;;;;;;6.15;3.08;;;22.50;63.50;;;;;;5033104;28;20488;-58
2023/07/22 09:16:57;;;;;;;4.97;3.20;;;22.50;63.50;;;;;;5000328;28;20109;-58
2023/07/22 09:19:23;;;;;;;4.78;3.20;;;22.50;63.60;;;;;;5033768;28;20802;-58
2023/07/22 09:21:49;;;;;;;5.35;2.80;;;22.50;63.60;;;;;;5033648;28;20048;-58
2023/07/22 09:24:22;;;;;;;5.07;2.97;;;22.50;63.60;;;;;;5016665;28;20103;-60
2023/07/22 09:26:48;;;;;;;5.22;2.85;;;22.50;63.70;;;;;;5014071;28;20582;-58
2023/07/22 09:29:14;;;;;;;5.18;3.08;;;22.50;63.70;;;;;;5013353;28;20133;-58
2023/07/22 09:31:50;;;;;;;5.45;3.05;;;22.50;63.70;;;;;;5029226;28;20041;-59
2023/07/22 09:34:16;;;;;;;6.03;3.00;;;22.50;63.70;;;;;;5033750;28;20041;-59
2023/07/22 09:36:57;;;;;;;7.15;2.83;;;22.50;63.70;;;;;;5033618;28;20056;-59
2023/07/22 09:39:26;;;;;;;4.93;2.95;;;22.50;63.60;;;;;;5034027;28;20132;-59
2023/07/22 09:41:54;;;;;;;5.70;3.15;;;22.40;64.30;;;;;;5032657;28;20044;-59
2023/07/22 09:44:20;;;;;;;5.75;3.10;;;22.40;63.70;;;;;;5034164;28;20124;-59
2023/07/22 09:46:51;;;;;;;6.45;3.08;;;22.40;63.70;;;;;;5033460;28;20124;-59
2023/07/22 09:49:17;;;;;;;4.57;2.90;;;22.30;63.70;;;;;;5032323;28;20034;-61
2023/07/22 09:51:43;;;;;;;6.28;3.08;;;22.30;63.70;;;;;;5029494;28;20041;-59
2023/07/22 09:54:09;;;;;;;5.80;3.20;;;22.30;63.80;;;;;;5032347;28;20034;-58
2023/07/22 09:56:45;;;;;;;5.18;2.83;;;22.30;64.00;;;;;;5027690;28;20072;-58
2023/07/22 09:59:11;;;;;;;5.57;3.30;;;22.30;64.10;;;;;;5033301;28;20045;-59
2023/07/22 10:01:38;;;;;;;8.43;3.03;;;22.30;64.10;;;;;;5032310;28;20084;-60
2023/07/22 10:04:04;;;;;;;10.88;3.38;;;22.30;64.10;;;;;;5033534;28;20091;-59
2023/07/22 10:06:32;;;;;;;13.27;3.13;;;22.30;64.20;;;;;;5031314;28;20128;-62
2023/07/22 10:09:10;;;;;;;8.90;3.33;;;22.30;64.30;;;;;;5032554;28;20061;-60
2023/07/22 10:11:36;;;;;;;6.30;3.15;;;22.20;64.20;;;;;;5012928;28;20128;-60
2023/07/22 10:14:04;;;;;;;9.30;3.30;;;22.20;64.20;;;;;;5012074;28;20129;-60
2023/07/22 10:16:30;;;;;;;8.40;3.55;;;22.20;64.40;;;;;;5023870;28;20099;-60
2023/07/22 10:18:57;;;;;;;6.57;2.92;;;22.20;64.40;;;;;;5031593;28;20053;-60
2023/07/22 10:21:23;;;;;;;8.85;3.15;;;22.20;64.40;;;;;;5033040;28;20029;-60
2023/07/22 10:23:49;;;;;;;7.55;3.30;;;22.30;64.50;;;;;;5014985;28;20181;-63
2023/07/22 10:26:21;;;;;;;7.30;3.10;;;22.30;64.50;;;;;;5015450;28;20049;-59
2023/07/22 10:28:47;;;;;;;6.32;3.20;;;22.30;64.60;;;;;;5031780;28;20057;-60
2023/07/22 10:31:18;;;;;;;7.25;2.95;;;22.20;64.50;;;;;;5023353;28;20408;-60
2023/07/22 10:33:48;;;;;;;7.00;3.10;;;22.30;64.60;;;;;;4995874;28;20034;-60
2023/07/22 10:36:15;;;;;;;6.57;3.22;;;22.30;64.60;;;;;;5012199;28;20065;-60
2023/07/22 10:38:41;;;;;;;7.70;3.03;;;22.20;64.60;;;;;;5012274;28;20048;-59
2023/07/22 10:41:16;;;;;;;6.53;3.55;;;22.20;64.60;;;;;;5013168;28;20050;-60
2023/07/22 10:43:44;;;;;;;6.60;2.95;;;22.30;64.70;;;;;;5008606;28;20041;-60
2023/07/22 10:46:11;;;;;;;;;;;22.20;64.70;;;;;;5013022;28;20046;-60
2023/07/22 10:48:38;;;;;;;5.55;2.67;;;22.20;64.50;;;;;;5018731;28;19951;-60
2023/07/22 10:51:17;;;;;;;5.20;2.93;;;22.20;64.60;;;;;;5032068;28;20052;-60
2023/07/22 10:53:50;;;;;;;8.73;3.42;;;22.20;64.60;;;;;;5030691;28;20117;-60
2023/07/22 10:56:19;;;;;;;7.10;3.30;;;22.20;64.70;;;;;;5032312;28;20485;-60
2023/07/22 10:58:45;;;;;;;7.15;3.10;;;22.20;64.80;;;;;;5030854;28;20090;-60
2023/07/22 11:01:27;;;;;;;6.00;3.40;;;22.20;64.80;;;;;;5032857;28;20077;-60
2023/07/22 11:04:11;;;;;;;8.45;3.00;;;22.10;64.70;;;;;;5031799;28;20489;-59
2023/07/22 11:06:38;;;;;;;6.20;3.17;;;22.10;64.70;;;;;;5031783;28;20049;-60
2023/07/22 11:09:04;;;;;;;9.70;2.83;;;22.10;64.50;;;;;;5030512;28;20037;-59
2023/07/22 11:11:41;;;;;;;5.68;2.83;;;22.10;64.50;;;;;;5031853;28;20473;-60
2023/07/22 11:14:21;;;;;;;6.05;2.95;;;22.10;64.50;;;;;;5030713;28;20048;-59
2023/07/22 11:16:47;;;;;;;9.55;3.30;;;22.10;64.40;;;;;;5031591;28;20766;-59
2023/07/22 11:19:14;;;;;;;6.50;3.30;;;22.10;64.50;;;;;;5028483;28;20125;-59
2023/07/22 11:21:39;;;;;;;7.00;3.08;;;22.00;64.50;;;;;;5031852;28;20034;-60
2023/07/22 11:24:06;;;;;;;7.95;3.35;;;22.10;64.50;;;;;;5026703;28;20559;-61
2023/07/22 11:26:32;;;;;;;11.10;3.92;;;22.00;64.40;;;;;;5017624;28;20049;-59
2023/07/22 11:28:59;;;;;;;10.73;4.25;;;22.00;64.40;;;;;;5027836;28;20050;-59
2023/07/22 11:31:36;;;;;;;10.02;4.00;;;22.00;64.40;;;;;;5015493;28;20046;-60
2023/07/22 11:34:05;;;;;;;12.15;4.03;;;22.10;64.60;;;;;;5015979;28;20052;-60
2023/07/22 11:36:31;;;;;;;11.65;3.63;;;22.00;64.50;;;;;;5030002;28;20370;-60
2023/07/22 11:39:10;;;;;;;9.65;4.10;;;22.00;64.60;;;;;;5036201;28;20243;-60
2023/07/22 11:41:36;;;;;;;9.23;3.90;;;22.00;64.60;;;;;;5033598;28;20084;-60
2023/07/22 11:44:02;;;;;;;9.57;3.80;;;22.00;64.60;;;;;;5035424;28;20080;-59
2023/07/22 11:46:28;;;;;;;11.45;3.78;;;22.00;64.70;;;;;;5035053;28;20040;-60
2023/07/22 11:48:54;;;;;;;11.95;3.97;;;22.00;64.70;;;;;;5029673;28;20046;-60
2023/07/22 11:51:24;;;;;;;10.02;4.00;;;22.00;64.70;;;;;;5016568;28;20081;-60
2023/07/22 11:53:53;;;;;;;11.70;4.05;;;22.00;64.80;;;;;;5015492;28;20064;-60
2023/07/22 11:56:21;;;;;;;10.43;4.35;;;22.00;64.70;;;;;;5014772;28;20136;-60
2023/07/22 11:58:53;;;;;;;9.45;3.90;;;22.00;64.80;;;;;;5015404;28;20114;-60
2023/07/22 12:01:19;;;;;;;10.52;4.10;;;22.00;64.80;;;;;;5015811;28;20133;-60
2023/07/22 12:03:45;;;;;;;7.53;3.58;;;22.00;64.80;;;;;;5014557;28;20125;-60
2023/07/22 12:06:10;;;;;;;9.55;3.95;;;22.00;64.90;;;;;;5016054;28;20038;-60
2023/07/22 12:08:37;;;;;;;11.00;4.13;;;22.00;64.80;;;;;;5025463;28;20056;-60
2023/07/22 12:11:03;;;;;;;9.02;4.32;;;22.00;64.90;;;;;;5035594;28;20049;-60
2023/07/22 12:13:35;;;;;;;11.05;3.95;;;22.00;65.00;;;;;;5034416;28;20492;-60
2023/07/22 12:16:02;;;;;;;9.95;3.72;;;22.00;65.00;;;;;;5034875;28;20073;-60
2023/07/22 12:18:27;;;;;;;8.02;3.85;;;22.00;65.00;;;;;;5021518;28;20046;-60
2023/07/22 12:20:53;;;;;;;7.90;3.97;;;22.00;65.10;;;;;;5035303;28;20068;-60
2023/07/22 12:23:18;;;;;;;10.48;4.43;;;22.10;65.10;;;;;;5034687;28;20041;-60
2023/07/22 12:25:44;;;;;;;7.88;3.78;;;22.00;65.10;;;;;;5034627;28;20090;-60
2023/07/22 12:28:10;;;;;;;11.00;4.10;;;22.00;65.10;;;;;;5035301;28;20044;-60
2023/07/22 12:30:36;;;;;;;11.48;4.07;;;22.00;65.10;;;;;;5033960;28;20053;-60
2023/07/22 12:33:02;;;;;;;10.05;4.00;;;22.10;65.20;;;;;;5035275;28;20037;-60
2023/07/22 12:35:28;;;;;;;8.45;3.38;;;22.00;65.20;;;;;;5034243;28;20033;-59
2023/07/22 12:37:53;;;;;;;10.93;3.83;;;22.00;65.20;;;;;;5023973;28;20050;-59
2023/07/22 12:40:20;;;;;;;7.25;3.42;;;22.10;65.30;;;;;;5030099;28;20473;-59
2023/07/22 12:42:46;;;;;;;9.20;4.00;;;22.10;65.50;;;;;;5034618;28;20029;-59